createdAt,value
2022-10-18T00:01:16.863Z,13.18
2022-10-18T00:05:18.538Z,16.90
2022-10-18T00:09:20.191Z,14.48
2022-10-18T00:13:22.262Z,16.67
2022-10-18T00:17:24.749Z,18.50
2022-10-18T00:21:27.024Z,17.90
2022-10-18T00:25:28.851Z,11.57
2022-10-18T00:29:30.450Z,16.92
2022-10-18T00:33:32.264Z,15.90
2022-10-18T00:37:34.922Z,10.25
2022-10-18T00:41:38.046Z,14.90
2022-10-18T00:45:41.024Z,11.27
2022-10-18T00:49:51.744Z,16.40
2022-10-18T00:53:53.382Z,19.73
2022-10-18T00:57:55.673Z,18.73
2022-10-18T01:01:57.343Z,16.48
2022-10-18T01:05:59.010Z,17.70
2022-10-18T01:10:03.448Z,19.58
2022-10-18T01:14:36.459Z,23.00
2022-10-18T01:18:43.906Z,18.98
2022-10-18T01:22:52.732Z,19.63
2022-10-18T01:27:12.282Z,24.90
2022-10-18T01:31:20.754Z,21.33
2022-10-18T01:35:32.051Z,19.50
2022-10-18T01:39:38.436Z,20.65
2022-10-18T01:43:40.725Z,17.98
2022-10-18T01:47:45.600Z,21.55
2022-10-18T01:51:47.236Z,22.95
2022-10-18T01:56:01.566Z,27.08
2022-10-18T02:00:12.789Z,27.33
2022-10-18T02:04:30.135Z,19.50
2022-10-18T02:08:57.909Z,21.65
2022-10-18T02:13:00.719Z,20.83
2022-10-18T02:21:11.127Z,30.23
2022-10-18T02:25:18.538Z,24.77
2022-10-18T02:29:20.218Z,22.98
2022-10-18T02:33:27.689Z,18.80
2022-10-18T02:37:37.877Z,20.40
2022-10-18T02:41:39.483Z,24.83
2022-10-18T02:45:41.458Z,22.30
2022-10-18T02:49:43.011Z,16.20
2022-10-18T02:53:44.745Z,28.48
2022-10-18T02:57:46.279Z,20.48
2022-10-18T03:01:48.124Z,26.20
2022-10-18T03:05:50.755Z,20.10
2022-10-18T03:09:52.376Z,25.35
2022-10-18T03:13:54.026Z,25.30
2022-10-18T03:17:55.618Z,28.02
2022-10-18T03:21:57.222Z,22.48
2022-10-18T03:25:58.829Z,22.30
2022-10-18T03:30:01.054Z,20.45
2022-10-18T03:34:02.810Z,15.40
2022-10-18T03:38:04.556Z,21.92
2022-10-18T03:42:06.159Z,25.83
2022-10-18T03:46:07.944Z,17.52
2022-10-18T03:50:09.863Z,22.85
2022-10-18T03:54:11.385Z,23.33
2022-10-18T03:58:12.945Z,21.90
2022-10-18T04:02:14.729Z,23.55
2022-10-18T04:06:16.376Z,16.35
2022-10-18T04:10:18.749Z,24.92
2022-10-18T04:14:21.477Z,21.67
2022-10-18T04:18:23.028Z,23.77
2022-10-18T04:22:24.663Z,20.42
2022-10-18T04:26:26.328Z,24.20
2022-10-18T04:30:27.891Z,20.33
2022-10-18T04:34:29.663Z,17.08
2022-10-18T04:38:31.320Z,19.10
2022-10-18T04:42:33.256Z,19.63
2022-10-18T04:46:35.423Z,16.07
2022-10-18T04:50:37.080Z,21.30
2022-10-18T04:54:48.765Z,21.65
2022-10-18T04:58:50.375Z,39.55
2022-10-18T05:02:57.146Z,22.42
2022-10-18T05:06:58.703Z,16.80
2022-10-18T05:11:00.745Z,21.08
2022-10-18T05:15:02.761Z,22.40
2022-10-18T05:19:05.722Z,19.57
2022-10-18T05:23:10.904Z,24.55
2022-10-18T05:27:12.480Z,18.65
2022-10-18T05:31:14.180Z,19.58
2022-10-18T05:35:15.855Z,22.75
2022-10-18T05:39:17.462Z,23.52
2022-10-18T05:43:19.055Z,27.15
2022-10-18T05:47:20.749Z,21.73
2022-10-18T05:51:23.931Z,23.40
2022-10-18T05:55:25.508Z,17.45
2022-10-18T05:59:27.105Z,25.17
2022-10-18T06:03:30.874Z,23.23
2022-10-18T06:07:33.170Z,23.75
2022-10-18T06:11:36.374Z,21.73
2022-10-18T06:19:39.455Z,18.33
2022-10-18T06:23:41.142Z,17.33
2022-10-18T06:27:42.694Z,18.08
2022-10-18T06:31:44.250Z,16.10
2022-10-18T06:35:57.949Z,20.65
2022-10-18T06:39:59.564Z,21.67
2022-10-18T06:44:07.231Z,15.52
2022-10-18T06:48:08.905Z,18.13
2022-10-18T06:52:10.522Z,21.80
2022-10-18T06:56:13.532Z,23.52
2022-10-18T07:00:15.364Z,26.52
2022-10-18T07:04:17.101Z,17.65
2022-10-18T07:08:18.854Z,14.85
2022-10-18T07:12:20.485Z,21.50
2022-10-18T07:16:22.206Z,24.00
2022-10-18T07:20:23.873Z,15.27
2022-10-18T07:24:25.515Z,17.58
2022-10-18T07:28:27.841Z,19.85
2022-10-18T07:32:29.399Z,16.33
2022-10-18T07:36:31.021Z,16.73
2022-10-18T07:40:32.631Z,17.92
2022-10-18T07:44:34.215Z,17.60
2022-10-18T07:48:35.785Z,17.50
2022-10-18T07:52:37.359Z,13.35
2022-10-18T07:56:38.915Z,14.52
2022-10-18T08:00:40.659Z,14.18
2022-10-18T08:04:42.188Z,20.35
2022-10-18T08:08:44.544Z,18.60
2022-10-18T08:12:46.392Z,18.33
2022-10-18T08:16:47.951Z,13.45
2022-10-18T08:20:49.556Z,18.85
2022-10-18T08:24:51.311Z,15.02
2022-10-18T08:29:17.427Z,15.02
2022-10-18T08:33:14.887Z,13.93
2022-10-18T08:37:16.915Z,14.30
2022-10-18T08:41:18.911Z,15.70
2022-10-18T08:45:37.454Z,17.00
2022-10-18T08:49:50.583Z,13.48
2022-10-18T08:54:02.835Z,12.38
2022-10-18T08:58:19.239Z,14.95
2022-10-18T09:02:40.081Z,14.23
2022-10-18T09:06:54.896Z,18.75
2022-10-18T09:11:06.887Z,15.15
2022-10-18T09:15:17.301Z,21.23
2022-10-18T09:19:43.942Z,15.38
2022-10-18T09:23:56.264Z,15.68
2022-10-18T09:28:13.920Z,15.75
2022-10-18T09:32:33.601Z,16.48
2022-10-18T09:36:38.735Z,16.33
2022-10-18T09:41:03.416Z,16.30
2022-10-18T09:45:26.763Z,18.20
2022-10-18T09:49:51.208Z,13.35
2022-10-18T09:54:09.064Z,17.42
2022-10-18T09:58:13.492Z,19.48
2022-10-18T10:02:23.634Z,20.27
2022-10-18T10:06:36.611Z,17.63
2022-10-18T10:10:40.616Z,21.75
2022-10-18T10:14:45.246Z,25.42
2022-10-18T10:18:53.587Z,18.63
2022-10-18T10:23:06.613Z,19.67
2022-10-18T10:27:18.033Z,21.35
2022-10-18T10:31:25.251Z,18.88
2022-10-18T10:40:18.173Z,14.18
2022-10-18T10:44:25.919Z,12.25
2022-10-18T10:48:33.275Z,13.50
2022-10-18T10:52:38.830Z,13.25
2022-10-18T10:57:02.820Z,10.63
2022-10-18T11:01:32.229Z,7.43
2022-10-18T11:05:43.352Z,7.38
2022-10-18T11:09:50.815Z,5.93
2022-10-18T11:14:20.959Z,9.40
2022-10-18T11:18:28.192Z,9.80
2022-10-18T11:22:36.293Z,7.22
2022-10-18T11:27:04.165Z,5.60
2022-10-18T11:31:31.385Z,11.15
2022-10-18T11:35:43.080Z,5.28
2022-10-18T11:39:50.902Z,5.82
2022-10-18T11:44:03.304Z,8.00
2022-10-18T11:48:28.571Z,7.68
2022-10-18T11:52:51.987Z,6.07
2022-10-18T11:57:31.880Z,7.57
2022-10-18T12:01:47.492Z,6.85
2022-10-18T12:05:51.040Z,6.85
2022-10-18T12:09:55.132Z,7.32
2022-10-18T12:14:00.622Z,2.78
2022-10-18T12:18:10.466Z,4.28
2022-10-18T12:22:43.110Z,3.47
2022-10-18T12:26:48.659Z,3.90
2022-10-18T12:31:05.290Z,2.90
2022-10-18T12:35:14.810Z,2.03
2022-10-18T12:39:33.464Z,3.65
2022-10-18T12:43:57.178Z,5.00
2022-10-18T12:48:06.694Z,1.67
2022-10-18T12:52:22.297Z,3.60
2022-10-18T12:56:30.185Z,2.05
2022-10-18T13:00:31.864Z,5.63
2022-10-18T13:04:34.918Z,2.03
2022-10-18T13:08:42.182Z,2.63
2022-10-18T13:12:43.789Z,2.45
2022-10-18T13:16:54.262Z,3.13
2022-10-18T13:21:08.232Z,2.35
2022-10-18T13:25:47.364Z,2.63
2022-10-18T13:30:01.208Z,1.83
2022-10-18T13:34:22.816Z,3.22
2022-10-18T13:38:32.806Z,1.10
2022-10-18T13:42:35.003Z,1.67
2022-10-18T13:46:36.805Z,2.20
2022-10-18T13:50:44.668Z,1.10
2022-10-18T13:55:28.057Z,2.05
2022-10-18T14:00:08.353Z,1.20
2022-10-18T14:04:37.992Z,4.15
2022-10-18T14:09:06.244Z,4.30
2022-10-18T14:13:21.592Z,2.40
2022-10-18T14:17:42.920Z,1.67
2022-10-18T14:21:53.396Z,1.40
2022-10-18T14:26:15.519Z,34.55
2022-10-18T14:30:20.483Z,6.17
2022-10-18T14:34:22.387Z,2.47
2022-10-18T14:38:24.631Z,1.27
2022-10-18T14:42:27.934Z,5.78
2022-10-18T14:46:31.806Z,2.75
2022-10-18T14:50:33.941Z,5.47
2022-10-18T14:54:38.444Z,6.70
2022-10-18T14:58:42.312Z,2.65
2022-10-18T15:02:43.973Z,1.73
2022-10-18T15:06:45.593Z,4.53
2022-10-18T15:10:48.287Z,4.20
2022-10-18T15:19:15.821Z,3.63
2022-10-18T15:23:26.832Z,11.50
2022-10-18T15:27:35.474Z,4.90
2022-10-18T15:31:43.014Z,10.77
2022-10-18T15:35:44.720Z,6.10
2022-10-18T15:39:46.448Z,3.05
2022-10-18T15:43:48.136Z,2.60
2022-10-18T15:48:01.947Z,4.40
2022-10-18T15:52:04.068Z,5.70
2022-10-18T15:56:09.714Z,7.13
2022-10-18T16:00:19.945Z,3.78
2022-10-18T16:04:25.946Z,3.65
2022-10-18T16:08:37.226Z,2.75
2022-10-18T16:12:38.884Z,1.25
2022-10-18T16:16:42.005Z,4.65
2022-10-18T16:20:43.756Z,8.75
2022-10-18T16:24:45.371Z,3.78
2022-10-18T16:28:48.278Z,3.47
2022-10-18T16:32:53.068Z,5.55
2022-10-18T16:36:55.490Z,9.18
2022-10-18T16:40:57.725Z,7.15
2022-10-18T16:44:59.516Z,14.82
2022-10-18T16:49:01.824Z,6.40
2022-10-18T16:53:03.511Z,21.50
2022-10-18T16:57:05.213Z,15.50
2022-10-18T17:01:09.050Z,17.77
2022-10-18T17:05:10.870Z,15.63
2022-10-18T17:09:14.312Z,10.40
2022-10-18T17:13:16.730Z,7.93
2022-10-18T17:17:18.430Z,4.45
2022-10-18T17:21:20.240Z,10.50
2022-10-18T17:25:21.955Z,11.95
2022-10-18T17:29:23.578Z,8.75
2022-10-18T17:33:25.145Z,8.35
2022-10-18T17:37:26.969Z,11.73
2022-10-18T17:41:28.740Z,11.43
2022-10-18T17:45:30.511Z,13.32
2022-10-18T17:49:32.237Z,4.60
2022-10-18T17:53:34.929Z,16.45
2022-10-18T17:57:36.776Z,9.38
2022-10-18T18:01:39.221Z,8.90
2022-10-18T18:05:41.137Z,4.90
2022-10-18T18:09:42.888Z,19.20
2022-10-18T18:13:44.617Z,6.20
2022-10-18T18:17:56.835Z,10.00
2022-10-18T18:21:59.466Z,4.85
2022-10-18T18:26:01.131Z,13.07
2022-10-18T18:30:02.731Z,8.38
2022-10-18T18:34:10.591Z,13.65
2022-10-18T18:38:12.387Z,9.45
2022-10-18T18:42:14.013Z,7.13
2022-10-18T18:46:15.770Z,7.88
2022-10-18T18:50:17.360Z,7.60
2022-10-18T18:54:20.644Z,5.70
2022-10-18T18:58:22.323Z,9.40
2022-10-18T19:02:24.022Z,8.13
2022-10-18T19:06:30.438Z,10.48
2022-10-18T19:10:32.208Z,10.98
2022-10-18T19:14:33.972Z,8.35
2022-10-18T19:18:35.806Z,8.88
2022-10-18T19:22:38.517Z,9.73
2022-10-18T19:26:48.841Z,13.23
2022-10-18T19:30:50.724Z,13.93
2022-10-18T19:34:52.990Z,13.48
2022-10-18T19:38:54.791Z,6.72
2022-10-18T19:42:56.581Z,9.40
2022-10-18T19:47:00.460Z,12.25
2022-10-18T19:51:09.317Z,14.87
2022-10-18T19:55:11.404Z,17.10
2022-10-18T19:59:14.831Z,8.90
2022-10-18T20:03:16.504Z,16.65
2022-10-18T20:07:18.101Z,12.20
2022-10-18T20:11:22.748Z,13.55
2022-10-18T20:15:24.409Z,15.55
2022-10-18T20:19:26.079Z,17.95
2022-10-18T20:23:27.725Z,13.77
2022-10-18T20:27:30.827Z,12.85
2022-10-18T20:31:37.192Z,10.65
2022-10-18T20:35:38.732Z,12.77
2022-10-18T20:39:40.789Z,10.00
2022-10-18T20:43:43.387Z,7.63
2022-10-18T20:47:44.957Z,19.73
2022-10-18T20:51:46.751Z,14.43
2022-10-18T20:55:49.399Z,22.30
2022-10-18T20:59:50.994Z,21.08
2022-10-18T21:03:54.787Z,20.67
2022-10-18T21:07:57.233Z,11.70
2022-10-18T21:11:58.841Z,15.23
2022-10-18T21:16:01.735Z,35.17
2022-10-18T21:20:03.741Z,13.70
2022-10-18T21:24:07.814Z,17.00
2022-10-18T21:28:09.649Z,18.58
2022-10-18T21:32:11.386Z,19.88
2022-10-18T21:36:13.639Z,13.27
2022-10-18T21:40:15.660Z,21.35
2022-10-18T21:44:17.745Z,22.05
2022-10-18T21:48:19.402Z,14.83
2022-10-18T21:52:22.137Z,20.17
2022-10-18T21:56:34.713Z,22.60
2022-10-18T22:00:36.389Z,19.95
2022-10-18T22:04:40.611Z,15.60
2022-10-18T22:08:53.055Z,21.88
2022-10-18T22:12:54.741Z,20.77
2022-10-18T22:16:56.351Z,21.92
2022-10-18T22:21:01.509Z,25.27
2022-10-18T22:25:05.626Z,22.67
2022-10-18T22:29:14.641Z,28.95
2022-10-18T22:33:16.270Z,26.30
2022-10-18T22:37:17.871Z,33.88
2022-10-18T22:41:19.904Z,37.83
2022-10-18T22:45:21.540Z,32.40
2022-10-18T22:49:24.648Z,31.23
2022-10-18T22:53:26.304Z,37.83
2022-10-18T22:57:29.486Z,29.88
2022-10-18T23:01:31.095Z,30.80
2022-10-18T23:05:40.096Z,28.65
2022-10-18T23:09:41.673Z,35.22
2022-10-18T23:13:43.983Z,29.17
2022-10-18T23:17:45.554Z,31.80
2022-10-18T23:21:47.340Z,36.42
2022-10-18T23:25:51.694Z,33.78
2022-10-18T23:29:53.542Z,35.42
2022-10-18T23:33:57.944Z,40.55
2022-10-18T23:37:59.570Z,44.47
2022-10-18T23:42:01.324Z,54.45
2022-10-18T23:46:03.252Z,55.00
2022-10-18T23:50:05.347Z,57.85
2022-10-18T23:54:06.920Z,52.37
2022-10-18T23:58:08.588Z,54.90
